Pagrindinis puslapis
METAR-TAF:

METAR-TAF

Oro uostai :

Ängelholm–Helsingborg

Helsingborgas, Švedija

platuma: 56-17-46N, ilguma: 012-50-50E, Aukštis: 21 m

Dabartinis oras

Ataskaita buvo paskelbta 37 minutes, ne 23:20 UTC
Vėjas 12 kt iš Vakarų/Pietvakarių
Temperatūra 16°C
Drėgmė 68%
Slėgis 1003 hPa
Matomumas 10 km arba daugiau

METAR: ESTA 012320Z AUTO 25012KT 9999 SCT028/// BKN066/// 16/10 Q1003

Laikas: 01:57 (23:57 UTC)

Prognozė

Ataskaita buvo paskelbta 9 valandos ir 57 minutes, ne 14:00 UTC
Prognozė galioja nuo 01 metu 15 UTC su 01 metu 19 UTC
Vėjas 15 kt iš Vakarų/Pietvakarių
Matomumas 10 km arba daugiau
Išsisklaidę debesys ne aukštis 3000 ft
Laikinai
nuo 01 metu 15 UTC su 01 metu 19 UTC
Išsisklaidę debesys ne aukštis 3000 ft, aukštai iškilę kamuoliniai debesys.

TAF: ESTA 011400Z 0115/0119 25015KT 9999 SCT030 TEMPO 0115/0119 SCT030TCU

Orai ataskaitas ir orų prognozės (METAR, TAF).

turimą stotys yra geltonos ir raudonos taškus žemėlapyje.

Perkelti pele per norėdami pamatyti stoties vardą.

Tada spustelėkite, norėdami matyti oro stebėjimo ir prognozės.

Norėdami pakeisti žemėlapį: spustelėkite ant žalios mygtukų su juodo kryžiaus žemyn,; žalią mygtuką su brūkšneliu, jei norite nutolinti; arba žalių rodyklių gretimoms žemėlapius.


METAR-TAF: